Time;durP1;ratioP1;P1;durP2;ratioP2;P2;SDS_P1;SDS_P2;PMS_P1;PMS_P2;Temp;Humidity;BMP_temperature;BMP_pressure;BME280_temperature;BME280_humidity;BME280_pressure;Samples;Min_cycle;Max_cycle;Signal;HPM_P1;HPM_P2
2023/03/26 00:00:42;;;;;;;8.70;2.67;;;9.20;99.90;;;;;;5057177;28;20837;-78
2023/03/26 00:03:10;;;;;;;7.30;3.20;;;9.20;99.90;;;;;;5052692;28;20416;-78
2023/03/26 00:05:37;;;;;;;6.60;2.53;;;9.30;99.90;;;;;;5054071;28;20916;-78
2023/03/26 00:08:02;;;;;;;6.50;3.07;;;9.10;99.90;;;;;;5053976;28;21004;-78
2023/03/26 00:10:28;;;;;;;5.70;2.73;;;9.20;99.90;;;;;;5052898;28;20452;-78
2023/03/26 00:12:54;;;;;;;7.90;2.80;;;9.40;99.90;;;;;;5051982;28;20194;-78
2023/03/26 00:15:19;;;;;;;7.90;2.70;;;9.30;99.90;;;;;;5053125;28;20193;-78
2023/03/26 00:17:46;;;;;;;7.77;3.57;;;9.20;99.90;;;;;;5046809;28;20189;-78
2023/03/26 00:20:12;;;;;;;15.80;3.07;;;9.20;99.90;;;;;;5052990;28;20232;-78
2023/03/26 00:22:39;;;;;;;8.30;2.73;;;9.30;99.90;;;;;;5052899;28;20502;-78
2023/03/26 00:25:08;;;;;;;11.40;3.20;;;9.20;99.90;;;;;;5051655;28;20735;-78
2023/03/26 00:27:34;;;;;;;7.57;2.70;;;9.20;99.90;;;;;;5035070;28;20996;-78
2023/03/26 00:30:03;;;;;;;6.43;2.80;;;9.20;99.90;;;;;;5052888;28;20408;-78
2023/03/26 00:32:30;;;;;;;11.77;3.20;;;9.20;99.90;;;;;;5053206;28;20511;-78
2023/03/26 00:35:00;;;;;;;8.70;3.10;;;9.20;99.90;;;;;;5052428;28;20467;-78
2023/03/26 00:37:26;;;;;;;8.30;2.50;;;9.30;99.90;;;;;;5051591;28;20482;-78
2023/03/26 00:40:06;;;;;;;13.03;3.37;;;9.30;99.90;;;;;;5043755;28;20416;-78
2023/03/26 00:42:32;;;;;;;9.87;3.10;;;9.30;99.90;;;;;;5053003;28;20178;-78
2023/03/26 00:44:59;;;;;;;11.90;3.33;;;9.30;99.90;;;;;;5042831;28;20436;-78
2023/03/26 00:47:26;;;;;;;12.90;3.20;;;9.20;99.90;;;;;;5052534;28;20498;-78
2023/03/26 00:49:52;;;;;;;13.13;3.30;;;9.30;99.90;;;;;;5046974;28;20503;-78
2023/03/26 00:52:22;;;;;;;10.87;4.27;;;9.40;99.90;;;;;;5045684;28;20509;-78
2023/03/26 00:54:50;;;;;;;14.63;5.57;;;9.20;99.90;;;;;;5048201;28;20198;-78
2023/03/26 00:57:19;;;;;;;16.17;4.00;;;9.30;99.90;;;;;;5048545;28;20416;-78
2023/03/26 00:59:45;;;;;;;11.20;2.90;;;9.20;99.90;;;;;;5051891;28;20468;-78
2023/03/26 01:02:17;;;;;;;12.83;3.70;;;9.30;99.90;;;;;;5052631;28;20646;-78
2023/03/26 01:05:24;;;;;;;10.30;3.17;;;9.30;99.90;;;;;;5052151;28;20576;-78
2023/03/26 01:07:50;;;;;;;13.63;3.27;;;9.30;99.90;;;;;;5050367;28;20506;-78
2023/03/26 01:10:16;;;;;;;14.00;4.13;;;9.30;99.90;;;;;;5051070;28;20444;-78
2023/03/26 01:12:42;;;;;;;13.17;4.03;;;9.20;99.90;;;;;;5052507;28;20463;-78
2023/03/26 01:15:09;;;;;;;12.33;3.40;;;9.30;99.90;;;;;;5052248;28;20462;-78
2023/03/26 01:17:36;;;;;;;10.10;3.20;;;9.30;99.90;;;;;;5051163;28;20917;-79
2023/03/26 01:20:12;;;;;;;18.13;4.57;;;9.30;99.90;;;;;;5034808;28;20466;-79
2023/03/26 01:22:50;;;;;;;14.23;3.83;;;9.30;99.90;;;;;;5052817;28;20475;-78
2023/03/26 01:25:15;;;;;;;18.13;4.30;;;9.30;99.90;;;;;;5034696;28;20432;-78
2023/03/26 01:27:47;;;;;;;12.73;3.60;;;9.40;99.90;;;;;;5052358;28;20444;-78
2023/03/26 01:30:35;;;;;;;12.07;3.73;;;9.30;99.90;;;;;;5052277;28;20447;-78
2023/03/26 01:33:25;;;;;;;19.77;4.60;;;9.30;99.90;;;;;;5052120;28;21011;-78
2023/03/26 01:36:01;;;;;;;14.10;3.73;;;9.30;99.90;;;;;;5051731;28;20408;-78
2023/03/26 01:38:52;;;;;;;12.67;3.53;;;9.30;99.90;;;;;;5050803;28;20513;-78
2023/03/26 01:41:32;;;;;;;12.90;3.70;;;9.30;99.90;;;;;;5039253;28;20423;-78
2023/03/26 01:44:10;;;;;;;15.90;4.93;;;9.30;99.90;;;;;;5032014;28;20433;-77
2023/03/26 01:46:36;;;;;;;15.17;3.97;;;9.30;99.90;;;;;;5031632;28;20452;-78
2023/03/26 01:49:11;;;;;;;17.43;4.53;;;9.40;99.90;;;;;;5031892;28;20405;-78
2023/03/26 01:51:39;;;;;;;16.47;3.97;;;9.30;99.90;;;;;;5032012;28;20412;-78
2023/03/26 01:54:09;;;;;;;11.80;3.73;;;9.30;99.90;;;;;;5031661;28;20437;-78
2023/03/26 01:57:02;;;;;;;13.20;3.60;;;9.40;99.90;;;;;;5030653;28;20405;-78
2023/03/26 01:59:40;;;;;;;12.93;3.90;;;9.30;99.90;;;;;;5031350;28;20774;-78
2023/03/26 02:02:10;;;;;;;17.03;4.20;;;9.30;99.90;;;;;;5031762;28;20413;-78
2023/03/26 02:04:39;;;;;;;14.67;4.30;;;9.30;99.90;;;;;;5046951;28;20432;-78
2023/03/26 02:07:10;;;;;;;14.37;4.30;;;9.40;99.90;;;;;;5031811;28;21051;-78
2023/03/26 02:09:44;;;;;;;13.23;3.80;;;9.50;99.90;;;;;;5048926;28;20495;-77
2023/03/26 02:12:12;;;;;;;12.03;3.43;;;9.20;99.90;;;;;;5050449;28;20921;-78
2023/03/26 02:14:38;;;;;;;14.03;3.80;;;9.30;99.90;;;;;;5051321;28;20987;-78
2023/03/26 02:17:03;;;;;;;15.23;3.80;;;9.30;99.90;;;;;;5051333;28;20416;-78
2023/03/26 02:19:29;;;;;;;19.97;3.47;;;9.30;99.90;;;;;;5051339;28;20174;-77
2023/03/26 02:21:58;;;;;;;11.17;3.50;;;9.30;99.90;;;;;;5050548;28;20174;-78
2023/03/26 02:24:24;;;;;;;12.40;3.87;;;9.30;99.90;;;;;;5051601;28;20216;-78
2023/03/26 02:26:50;;;;;;;16.20;4.90;;;9.40;99.90;;;;;;5050352;28;20527;-77
2023/03/26 02:29:19;;;;;;;14.30;3.80;;;9.30;99.90;;;;;;5050448;28;20431;-77
2023/03/26 02:31:47;;;;;;;9.57;3.97;;;9.30;99.90;;;;;;5051720;28;20455;-78
2023/03/26 02:34:13;;;;;;;12.13;4.20;;;9.20;99.90;;;;;;5050727;28;20597;-77
2023/03/26 02:36:41;;;;;;;11.40;4.17;;;9.20;99.90;;;;;;5052064;28;20404;-77
2023/03/26 02:39:09;;;;;;;10.63;2.93;;;9.30;99.90;;;;;;5051209;28;20419;-78
2023/03/26 02:41:36;;;;;;;10.83;4.57;;;9.30;99.90;;;;;;5031555;28;20421;-78
2023/03/26 02:44:03;;;;;;;17.73;4.00;;;9.20;99.90;;;;;;5050662;28;20443;-78
2023/03/26 02:46:29;;;;;;;16.20;3.40;;;9.20;99.90;;;;;;5049885;28;20460;-78
2023/03/26 02:48:54;;;;;;;13.80;4.10;;;9.30;99.90;;;;;;5033566;28;21110;-78
2023/03/26 02:51:20;;;;;;;17.80;4.57;;;9.30;99.90;;;;;;5051622;28;20176;-78
2023/03/26 02:53:46;;;;;;;14.83;4.57;;;9.30;99.90;;;;;;5050946;28;20197;-78
2023/03/26 02:56:12;;;;;;;15.50;4.57;;;9.40;99.90;;;;;;5051251;28;20239;-78
2023/03/26 02:58:37;;;;;;;13.17;4.37;;;9.30;99.90;;;;;;5049827;28;20503;-78
2023/03/26 03:01:04;;;;;;;8.80;2.87;;;9.30;99.90;;;;;;5051849;28;20443;-78
2023/03/26 03:03:30;;;;;;;17.83;4.63;;;9.20;99.90;;;;;;5051025;28;20244;-78
2023/03/26 03:05:56;;;;;;;14.50;3.30;;;9.40;99.90;;;;;;5052417;28;20412;-78
2023/03/26 03:08:25;;;;;;;21.57;6.10;;;9.30;99.90;;;;;;5050226;28;20440;-78
2023/03/26 03:11:07;;;;;;;11.07;3.23;;;9.30;99.90;;;;;;5050842;28;20986;-77
2023/03/26 03:13:33;;;;;;;15.13;4.07;;;9.60;99.90;;;;;;5047855;28;20477;-77
2023/03/26 03:15:59;;;;;;;12.20;3.30;;;9.30;99.90;;;;;;5050186;28;20416;-78
2023/03/26 03:18:24;;;;;;;10.40;3.03;;;9.30;99.90;;;;;;5051023;28;20172;-78
2023/03/26 03:20:50;;;;;;;11.37;3.47;;;9.20;99.90;;;;;;5050749;28;20465;-78
2023/03/26 03:23:16;;;;;;;16.97;3.37;;;9.20;99.90;;;;;;5052232;28;20792;-77
2023/03/26 03:25:42;;;;;;;15.70;3.80;;;9.30;99.90;;;;;;5055329;28;20170;-78
2023/03/26 03:28:07;;;;;;;13.50;3.23;;;9.30;99.90;;;;;;5054496;28;20716;-78
2023/03/26 03:30:34;;;;;;;13.63;3.10;;;9.10;99.90;;;;;;5054272;28;20412;-78
2023/03/26 03:33:01;;;;;;;16.87;4.20;;;9.20;99.90;;;;;;5053487;28;20231;-78
2023/03/26 03:35:28;;;;;;;12.43;3.63;;;9.10;99.90;;;;;;5053457;28;20990;-78
2023/03/26 03:37:58;;;;;;;14.20;3.03;;;9.20;99.90;;;;;;5053371;28;20427;-78
2023/03/26 03:40:24;;;;;;;7.37;3.23;;;9.20;99.90;;;;;;5053673;28;20419;-78
2023/03/26 03:42:50;;;;;;;11.00;3.00;;;9.20;99.90;;;;;;5054109;28;20491;-78
2023/03/26 03:45:16;;;;;;;12.50;3.70;;;9.30;99.90;;;;;;5054507;28;20432;-78
2023/03/26 03:47:42;;;;;;;13.17;4.43;;;9.20;99.90;;;;;;5053267;28;20988;-78
2023/03/26 03:50:09;;;;;;;15.13;3.80;;;9.30;99.90;;;;;;5054078;28;20812;-78
2023/03/26 03:52:35;;;;;;;12.67;3.37;;;9.10;99.90;;;;;;5053418;28;20416;-78
2023/03/26 03:55:00;;;;;;;11.60;3.57;;;9.20;99.90;;;;;;5053348;28;20996;-78
2023/03/26 03:57:30;;;;;;;14.07;3.90;;;9.20;99.90;;;;;;5054869;28;20213;-78
2023/03/26 03:59:58;;;;;;;13.77;3.47;;;9.10;99.90;;;;;;5054057;28;20180;-78
2023/03/26 04:02:29;;;;;;;11.07;3.87;;;9.30;99.90;;;;;;5055673;28;20415;-78
2023/03/26 04:04:59;;;;;;;8.57;3.30;;;9.20;99.90;;;;;;5054894;28;20432;-78
2023/03/26 04:07:25;;;;;;;19.50;3.70;;;9.20;99.90;;;;;;5053938;28;20496;-78
2023/03/26 04:09:51;;;;;;;13.23;3.60;;;9.20;99.90;;;;;;5053784;28;20470;-78
2023/03/26 04:12:17;;;;;;;10.63;3.63;;;9.30;99.90;;;;;;5037054;28;20957;-78
2023/03/26 04:14:43;;;;;;;14.47;3.43;;;9.40;99.90;;;;;;5054678;28;20448;-78
2023/03/26 04:17:09;;;;;;;16.63;3.70;;;9.20;99.90;;;;;;5053776;28;20499;-78
2023/03/26 04:19:35;;;;;;;10.47;3.40;;;9.40;99.90;;;;;;5054541;28;20200;-77
2023/03/26 04:22:01;;;;;;;9.60;3.40;;;9.40;99.90;;;;;;5052818;28;20676;-78
2023/03/26 04:24:37;;;;;;;15.03;3.77;;;9.40;99.90;;;;;;5053967;28;20432;-78
2023/03/26 04:27:05;;;;;;;14.30;3.30;;;9.40;99.90;;;;;;5054701;28;20470;-77
2023/03/26 04:29:41;;;;;;;11.37;2.90;;;9.30;99.90;;;;;;5054225;28;20440;-79
2023/03/26 04:32:11;;;;;;;11.80;3.17;;;9.40;99.90;;;;;;5053461;28;20826;-79
2023/03/26 04:34:37;;;;;;;11.73;3.13;;;9.40;99.90;;;;;;5051525;28;20436;-78
2023/03/26 04:37:03;;;;;;;13.37;3.20;;;9.30;99.90;;;;;;5052424;28;20871;-78
2023/03/26 04:39:33;;;;;;;8.87;3.43;;;9.30;99.90;;;;;;5059016;28;20447;-79
2023/03/26 04:41:59;;;;;;;12.60;4.07;;;9.30;99.90;;;;;;5059196;28;20522;-77
2023/03/26 04:44:25;;;;;;;18.27;4.33;;;9.40;99.90;;;;;;5052320;28;20505;-79
2023/03/26 04:46:54;;;;;;;13.97;3.30;;;9.10;99.90;;;;;;5053412;28;20451;-78
2023/03/26 04:49:20;;;;;;;8.00;2.70;;;9.30;99.90;;;;;;5052384;28;20182;-77
2023/03/26 04:51:46;;;;;;;12.77;3.13;;;9.20;99.90;;;;;;5053321;28;20741;-77
2023/03/26 04:54:13;;;;;;;13.77;3.30;;;9.10;99.90;;;;;;5051719;28;20432;-77
2023/03/26 04:56:50;;;;;;;8.73;4.23;;;9.40;99.90;;;;;;5053777;28;20445;-78
2023/03/26 04:59:28;;;;;;;9.03;2.37;;;9.20;99.90;;;;;;5051852;28;20415;-78
2023/03/26 05:01:56;;;;;;;9.80;2.90;;;9.20;99.90;;;;;;5053315;28;20478;-78
2023/03/26 05:04:22;;;;;;;14.00;3.37;;;9.40;99.90;;;;;;5051868;28;20581;-78
2023/03/26 05:06:48;;;;;;;11.93;3.33;;;9.10;99.90;;;;;;5053036;28;20491;-79
2023/03/26 05:09:14;;;;;;;12.40;4.50;;;9.20;99.90;;;;;;5051273;28;20513;-77
2023/03/26 05:11:40;;;;;;;9.03;3.30;;;9.20;99.90;;;;;;5051679;28;20718;-78
2023/03/26 05:14:06;;;;;;;8.07;3.70;;;9.20;99.90;;;;;;5051667;28;20698;-78
2023/03/26 05:16:33;;;;;;;9.57;2.80;;;9.30;99.90;;;;;;5052929;28;20458;-78
2023/03/26 05:18:59;;;;;;;7.93;2.60;;;9.20;99.90;;;;;;5035982;28;20808;-77
2023/03/26 05:21:24;;;;;;;7.77;2.50;;;9.20;99.90;;;;;;5053196;28;20443;-78
2023/03/26 05:23:50;;;;;;;15.93;4.10;;;9.30;99.90;;;;;;5053285;28;20216;-77
2023/03/26 05:26:16;;;;;;;6.00;2.67;;;9.20;99.90;;;;;;5053076;28;20670;-78
2023/03/26 05:28:42;;;;;;;9.47;3.10;;;9.20;99.90;;;;;;5054112;28;20245;-79
2023/03/26 05:31:08;;;;;;;8.80;3.27;;;9.20;99.90;;;;;;5053002;28;20835;-78
2023/03/26 05:33:34;;;;;;;12.63;2.97;;;9.10;99.90;;;;;;5054733;28;20202;-78
2023/03/26 05:36:03;;;;;;;10.43;3.50;;;9.00;99.90;;;;;;5055585;28;20518;-78
2023/03/26 05:38:29;;;;;;;6.17;2.03;;;9.20;99.90;;;;;;5054156;28;20189;-78
2023/03/26 05:41:00;;;;;;;10.23;2.30;;;9.10;99.90;;;;;;5063687;28;20514;-78
2023/03/26 05:43:26;;;;;;;10.87;3.10;;;9.00;99.90;;;;;;5049430;28;20808;-78
2023/03/26 05:45:52;;;;;;;9.23;2.83;;;9.10;99.90;;;;;;5036192;28;20412;-78
2023/03/26 05:48:18;;;;;;;12.97;3.70;;;9.10;99.90;;;;;;5053811;28;20452;-78
2023/03/26 05:50:44;;;;;;;13.83;3.13;;;9.10;99.90;;;;;;5052232;28;20228;-78
2023/03/26 05:53:09;;;;;;;8.57;2.20;;;9.30;99.90;;;;;;5051959;28;20424;-78
2023/03/26 05:55:35;;;;;;;15.67;3.63;;;9.10;99.90;;;;;;5052617;28;20382;-78
2023/03/26 05:58:01;;;;;;;10.53;2.77;;;9.10;99.90;;;;;;5052445;28;20180;-78
2023/03/26 06:00:27;;;;;;;12.57;2.90;;;9.20;99.90;;;;;;5051296;28;20184;-78
2023/03/26 06:02:53;;;;;;;9.27;2.70;;;9.10;99.90;;;;;;5052549;28;20503;-78
2023/03/26 06:05:19;;;;;;;6.17;3.00;;;9.40;99.90;;;;;;5034569;28;20937;-78
2023/03/26 06:07:45;;;;;;;11.20;2.93;;;9.10;99.90;;;;;;5052826;28;20666;-78
2023/03/26 06:10:11;;;;;;;7.57;3.00;;;9.20;99.90;;;;;;5051807;28;20404;-78
2023/03/26 06:12:37;;;;;;;12.50;3.30;;;9.20;99.90;;;;;;5053073;28;20181;-78
2023/03/26 06:15:03;;;;;;;11.30;3.00;;;9.10;99.90;;;;;;5052422;28;20438;-78
2023/03/26 06:17:29;;;;;;;9.80;2.90;;;9.10;99.90;;;;;;5052449;28;20527;-79
2023/03/26 06:19:55;;;;;;;13.50;3.17;;;9.20;99.90;;;;;;5052599;28;20423;-78
2023/03/26 06:22:20;;;;;;;9.07;2.70;;;9.20;99.90;;;;;;5050820;28;20456;-77
2023/03/26 06:24:46;;;;;;;12.90;2.70;;;9.20;99.90;;;;;;5052170;28;20259;-78
2023/03/26 06:27:12;;;;;;;7.50;2.63;;;9.20;99.90;;;;;;5052101;28;20267;-79
2023/03/26 06:29:37;;;;;;;6.40;2.60;;;9.30;99.90;;;;;;5052707;28;20178;-78
2023/03/26 06:32:03;;;;;;;10.20;2.73;;;9.30;99.90;;;;;;5050929;28;20188;-78
2023/03/26 06:34:29;;;;;;;9.83;2.73;;;9.20;99.90;;;;;;5049889;28;20239;-78
2023/03/26 06:36:54;;;;;;;10.37;2.50;;;9.10;99.90;;;;;;5052347;28;20213;-78
2023/03/26 06:39:20;;;;;;;8.67;3.93;;;9.20;99.90;;;;;;5056888;28;20185;-78
2023/03/26 06:41:46;;;;;;;7.30;2.37;;;9.30;99.90;;;;;;5059244;28;20196;-79
2023/03/26 06:44:11;;;;;;;8.80;2.83;;;9.30;99.90;;;;;;5052266;28;20206;-78
2023/03/26 06:46:38;;;;;;;11.53;3.63;;;9.30;99.90;;;;;;5052536;28;20706;-79
2023/03/26 06:49:03;;;;;;;5.90;2.70;;;9.30;99.90;;;;;;5050892;28;20178;-79
2023/03/26 06:51:29;;;;;;;7.37;3.03;;;9.40;99.90;;;;;;5051011;28;20824;-78
2023/03/26 06:53:55;;;;;;;8.10;2.60;;;9.30;99.90;;;;;;5051618;28;20680;-77
2023/03/26 06:56:20;;;;;;;9.33;2.53;;;9.50;99.90;;;;;;5050949;28;20185;-78
2023/03/26 06:58:46;;;;;;;8.43;2.57;;;9.30;99.90;;;;;;5049810;28;20181;-78
2023/03/26 07:01:12;;;;;;;8.80;2.50;;;9.30;99.90;;;;;;5049878;28;20186;-78
2023/03/26 07:03:37;;;;;;;10.07;2.37;;;9.30;99.90;;;;;;5050060;28;20468;-78
2023/03/26 07:06:03;;;;;;;8.03;2.57;;;9.30;99.90;;;;;;5052072;28;20592;-79
2023/03/26 07:08:30;;;;;;;6.83;2.80;;;9.50;99.90;;;;;;5052245;28;20684;-78
2023/03/26 07:10:56;;;;;;;11.40;2.77;;;9.40;99.90;;;;;;5049464;28;20503;-78
2023/03/26 07:13:21;;;;;;;8.53;2.77;;;9.40;99.90;;;;;;5050475;28;20534;-78
2023/03/26 07:15:47;;;;;;;10.30;3.27;;;9.40;99.90;;;;;;5051424;28;20433;-78
2023/03/26 07:18:13;;;;;;;7.40;2.80;;;9.40;99.90;;;;;;5048875;28;20617;-77
2023/03/26 07:20:41;;;;;;;8.13;2.80;;;9.40;99.90;;;;;;5048742;28;20448;-78
2023/03/26 07:23:08;;;;;;;7.23;2.47;;;9.30;99.90;;;;;;5050627;28;20177;-79
2023/03/26 07:25:34;;;;;;;9.33;2.60;;;9.40;99.90;;;;;;5050960;28;20558;-80
2023/03/26 07:28:12;;;;;;;8.50;3.67;;;9.50;99.90;;;;;;5048537;28;20460;-77
2023/03/26 07:31:02;;;;;;;7.67;2.70;;;9.40;99.90;;;;;;5044505;28;20481;-76
2023/03/26 07:33:41;;;;;;;8.70;2.80;;;9.30;99.90;;;;;;5045356;28;20519;-76
2023/03/26 07:36:31;;;;;;;10.93;2.70;;;9.30;99.90;;;;;;5045546;28;20497;-76
2023/03/26 07:39:06;;;;;;;11.73;3.27;;;9.30;99.90;;;;;;5046338;28;20544;-76
2023/03/26 07:41:42;;;;;;;6.67;2.50;;;9.30;99.90;;;;;;5044843;28;20875;-78
2023/03/26 07:44:14;;;;;;;6.70;2.37;;;9.30;99.90;;;;;;5032677;28;20451;-79
2023/03/26 07:46:40;;;;;;;7.50;3.07;;;9.40;99.90;;;;;;5049060;28;20460;-79
2023/03/26 07:49:08;;;;;;;8.47;3.20;;;9.10;99.90;;;;;;5050518;28;20424;-79
2023/03/26 07:51:34;;;;;;;9.77;2.80;;;9.20;99.90;;;;;;5032633;28;20780;-78
2023/03/26 07:54:02;;;;;;;6.80;2.93;;;9.30;99.90;;;;;;5048396;28;20436;-79
2023/03/26 07:56:33;;;;;;;10.30;3.43;;;9.30;99.90;;;;;;5031061;28;20430;-78
2023/03/26 07:59:02;;;;;;;10.00;2.70;;;9.20;99.90;;;;;;5039727;28;20960;-77
2023/03/26 08:02:00;;;;;;;9.70;2.83;;;9.20;99.90;;;;;;5046678;28;20452;-79
2023/03/26 08:04:44;;;;;;;9.43;2.97;;;9.10;99.90;;;;;;5045517;28;20547;-78
2023/03/26 08:07:23;;;;;;;7.83;2.77;;;9.20;99.90;;;;;;5050936;28;20465;-78
2023/03/26 08:09:55;;;;;;;10.97;3.70;;;9.10;99.90;;;;;;5055859;28;20925;-79
2023/03/26 08:12:40;;;;;;;12.70;3.43;;;9.20;99.90;;;;;;5054150;28;20470;-78
2023/03/26 08:15:29;;;;;;;9.50;3.00;;;9.20;99.90;;;;;;5049181;28;20451;-78
2023/03/26 08:18:13;;;;;;;8.07;2.80;;;9.30;99.90;;;;;;5056122;28;20440;-78
2023/03/26 08:20:48;;;;;;;7.83;2.87;;;9.20;99.90;;;;;;5058817;28;20451;-79
2023/03/26 08:23:28;;;;;;;6.63;2.57;;;9.20;99.90;;;;;;5048313;28;20443;-79
2023/03/26 08:26:15;;;;;;;8.00;2.90;;;9.20;99.90;;;;;;5062691;28;20439;-79
2023/03/26 08:28:54;;;;;;;9.60;2.73;;;9.20;99.90;;;;;;5051558;28;20589;-79
2023/03/26 08:31:37;;;;;;;9.60;3.27;;;9.30;99.90;;;;;;5054432;28;20427;-78
2023/03/26 08:34:04;;;;;;;9.83;2.90;;;9.30;99.90;;;;;;5053238;28;20447;-79
2023/03/26 08:36:30;;;;;;;8.50;2.87;;;9.20;99.90;;;;;;5037212;28;21026;-79
2023/03/26 08:38:58;;;;;;;7.83;3.20;;;9.30;99.90;;;;;;5053863;28;20955;-78
2023/03/26 08:41:47;;;;;;;7.40;3.47;;;9.10;99.90;;;;;;5049694;28;20458;-79
2023/03/26 08:44:50;;;;;;;6.33;3.30;;;9.30;99.90;;;;;;5049627;28;20884;-79
2023/03/26 08:47:37;;;;;;;6.97;2.83;;;9.20;99.90;;;;;;5051937;28;20463;-78
2023/03/26 08:50:03;;;;;;;11.23;3.27;;;9.20;99.90;;;;;;5050801;28;20469;-79
2023/03/26 08:53:01;;;;;;;6.43;2.90;;;9.20;99.90;;;;;;5052758;28;20432;-79
2023/03/26 08:55:45;;;;;;;11.10;4.03;;;9.30;99.90;;;;;;5050411;28;20209;-78
2023/03/26 08:58:17;;;;;;;12.33;3.13;;;9.50;99.90;;;;;;5051014;28;20443;-79
2023/03/26 09:00:58;;;;;;;11.03;3.27;;;9.20;99.90;;;;;;5050344;28;20447;-78
2023/03/26 09:03:51;;;;;;;11.00;3.40;;;9.20;99.90;;;;;;5033434;28;20472;-79
2023/03/26 09:06:58;;;;;;;6.67;3.20;;;9.40;99.90;;;;;;5050151;28;20470;-79
2023/03/26 09:09:26;;;;;;;11.20;3.97;;;9.20;99.90;;;;;;5008839;28;20473;-77
2023/03/26 09:12:05;;;;;;;9.07;3.20;;;9.40;99.90;;;;;;5042581;28;20470;-78
2023/03/26 09:15:13;;;;;;;11.93;3.90;;;9.30;99.90;;;;;;5069759;28;20456;-79
2023/03/26 09:17:58;;;;;;;8.30;3.47;;;9.20;99.90;;;;;;5050959;28;20443;-77
2023/03/26 09:20:42;;;;;;;9.57;2.83;;;9.30;99.90;;;;;;5058441;28;20431;-78
2023/03/26 09:23:26;;;;;;;10.20;2.70;;;9.50;99.90;;;;;;5048778;28;20968;-78
2023/03/26 09:26:04;;;;;;;8.57;3.77;;;9.40;99.90;;;;;;5055989;28;20428;-78
2023/03/26 09:28:54;;;;;;;4.90;2.43;;;9.40;99.90;;;;;;5053803;28;21012;-78
2023/03/26 09:31:25;;;;;;;4.80;2.50;;;9.50;99.90;;;;;;5050901;28;20431;-78
2023/03/26 09:33:58;;;;;;;8.20;3.07;;;9.50;99.90;;;;;;5046991;28;20444;-78
2023/03/26 09:36:38;;;;;;;7.57;3.47;;;9.50;99.90;;;;;;5052382;28;20808;-78
2023/03/26 09:39:55;;;;;;;5.80;2.53;;;9.50;99.90;;;;;;5048532;28;20573;-78
2023/03/26 09:43:14;;;;;;;6.30;3.07;;;9.50;99.90;;;;;;5027278;28;20458;-79
2023/03/26 09:46:15;;;;;;;5.83;2.50;;;9.40;99.90;;;;;;5042103;28;20566;-78
2023/03/26 09:49:16;;;;;;;9.90;3.13;;;9.50;99.90;;;;;;5066773;28;20494;-77
2023/03/26 09:51:49;;;;;;;4.10;2.23;;;9.50;99.90;;;;;;5045177;28;20436;-78
2023/03/26 09:54:43;;;;;;;4.10;2.00;;;9.30;99.90;;;;;;5050683;28;20439;-78
2023/03/26 09:57:20;;;;;;;4.87;2.33;;;9.40;99.90;;;;;;5048456;28;20436;-78
2023/03/26 10:00:08;;;;;;;2.90;1.90;;;9.40;99.90;;;;;;5050789;28;20518;-78
2023/03/26 10:02:47;;;;;;;5.50;2.43;;;9.50;99.90;;;;;;5051367;28;20451;-78
2023/03/26 10:05:25;;;;;;;6.80;2.93;;;9.50;99.90;;;;;;5047843;28;20464;-78
2023/03/26 10:08:03;;;;;;;3.90;2.40;;;9.80;99.90;;;;;;5053686;28;20456;-78
2023/03/26 10:10:54;;;;;;;9.37;2.60;;;9.50;99.90;;;;;;5048290;28;20448;-78
2023/03/26 10:13:33;;;;;;;5.37;1.90;;;9.60;99.90;;;;;;5053708;28;20467;-79
2023/03/26 10:16:16;;;;;;;6.30;2.27;;;9.70;99.90;;;;;;5055975;28;20432;-78
2023/03/26 10:19:04;;;;;;;4.90;2.20;;;9.60;99.90;;;;;;5060210;28;20451;-79
2023/03/26 10:21:38;;;;;;;3.53;1.80;;;9.70;99.90;;;;;;5054873;28;20440;-79
2023/03/26 10:24:10;;;;;;;4.13;1.83;;;9.70;99.90;;;;;;5055016;28;20435;-78
2023/03/26 10:26:50;;;;;;;2.60;1.60;;;9.70;99.90;;;;;;5056575;28;20455;-78
2023/03/26 10:29:37;;;;;;;3.67;1.80;;;9.70;99.90;;;;;;5055542;28;20452;-78
2023/03/26 10:32:16;;;;;;;4.60;1.60;;;9.70;99.90;;;;;;5062706;28;20467;-78
2023/03/26 10:34:54;;;;;;;4.50;1.70;;;9.70;99.90;;;;;;5056707;28;20505;-78
2023/03/26 10:37:39;;;;;;;5.07;1.80;;;9.70;99.90;;;;;;5053230;28;20436;-78
2023/03/26 10:40:05;;;;;;;5.70;2.00;;;9.60;99.90;;;;;;5057199;28;20444;-78
2023/03/26 10:43:09;;;;;;;3.00;1.50;;;9.50;99.90;;;;;;5055700;28;20504;-78
2023/03/26 10:45:40;;;;;;;2.30;1.47;;;9.80;99.90;;;;;;5051261;28;20296;-78
2023/03/26 10:48:33;;;;;;;4.00;1.57;;;9.70;99.90;;;;;;5050689;28;20498;-78
2023/03/26 10:51:20;;;;;;;2.57;1.27;;;9.60;99.90;;;;;;5052211;28;20841;-79
2023/03/26 10:53:59;;;;;;;3.13;1.30;;;9.80;99.90;;;;;;5043453;28;22160;-77
2023/03/26 10:56:31;;;;;;;2.93;1.70;;;9.60;99.90;;;;;;5052913;28;20442;-78
2023/03/26 10:59:04;;;;;;;1.37;0.93;;;9.70;99.90;;;;;;5050812;28;20440;-78
2023/03/26 11:01:30;;;;;;;3.10;1.50;;;9.70;99.90;;;;;;5050212;28;20471;-78
2023/03/26 11:04:17;;;;;;;1.80;0.90;;;9.50;99.90;;;;;;5048758;28;21015;-78
2023/03/26 11:07:10;;;;;;;1.80;0.80;;;9.50;99.90;;;;;;5045278;28;20205;-78
2023/03/26 11:09:48;;;;;;;2.23;0.90;;;9.50;99.90;;;;;;5049463;28;20956;-78
2023/03/26 11:12:20;;;;;;;6.27;0.97;;;9.50;99.90;;;;;;5051315;28;20505;-78
2023/03/26 11:15:04;;;;;;;1.63;0.90;;;9.40;99.90;;;;;;5050380;28;20449;-78
2023/03/26 11:17:35;;;;;;;1.67;0.90;;;9.70;99.90;;;;;;5047338;28;20486;-77
2023/03/26 11:20:07;;;;;;;1.20;0.90;;;9.50;99.90;;;;;;5053205;28;20634;-77
2023/03/26 11:22:51;;;;;;;0.87;0.60;;;9.30;99.90;;;;;;5061920;28;20453;-78
2023/03/26 11:25:35;;;;;;;2.20;0.73;;;9.30;99.90;;;;;;5052731;28;20451;-77
2023/03/26 11:28:14;;;;;;;2.93;0.83;;;9.40;99.90;;;;;;5043699;28;20456;-78
2023/03/26 11:31:05;;;;;;;4.07;0.87;;;9.20;99.90;;;;;;5056868;28;20431;-78
2023/03/26 11:33:43;;;;;;;1.30;0.77;;;9.20;99.90;;;;;;5055399;28;20458;-78
2023/03/26 11:36:15;;;;;;;1.60;0.90;;;9.20;99.90;;;;;;5049944;28;20438;-78
2023/03/26 11:38:46;;;;;;;1.27;0.77;;;9.20;99.90;;;;;;5030291;28;21060;-78
2023/03/26 11:41:19;;;;;;;1.20;0.90;;;9.20;99.90;;;;;;5050420;28;20440;-77
2023/03/26 11:43:49;;;;;;;1.17;0.67;;;9.20;99.90;;;;;;5049396;28;21043;-78
2023/03/26 11:46:19;;;;;;;0.80;0.70;;;9.10;99.90;;;;;;5056173;28;20895;-78
2023/03/26 11:48:49;;;;;;;1.23;0.50;;;9.20;99.90;;;;;;5052312;28;20448;-78
2023/03/26 11:51:32;;;;;;;2.27;0.70;;;9.20;99.90;;;;;;5058554;28;20463;-78
2023/03/26 11:54:03;;;;;;;2.10;0.60;;;9.10;99.90;;;;;;5046708;28;20511;-78
2023/03/26 11:56:32;;;;;;;0.80;0.40;;;9.30;99.90;;;;;;5046021;28;20441;-78
2023/03/26 11:59:00;;;;;;;1.67;0.60;;;9.10;99.90;;;;;;5055382;28;21034;-78
2023/03/26 12:01:39;;;;;;;0.87;0.50;;;9.30;99.90;;;;;;5062324;28;20510;-78
2023/03/26 12:04:14;;;;;;;1.47;0.50;;;9.20;99.90;;;;;;5055489;28;20472;-78
2023/03/26 12:06:58;;;;;;;1.00;0.47;;;9.00;99.90;;;;;;5047458;28;20484;-78
2023/03/26 12:09:25;;;;;;;1.10;0.50;;;9.20;99.90;;;;;;5059178;28;20464;-78
2023/03/26 12:12:00;;;;;;;1.53;0.60;;;9.10;99.90;;;;;;5060218;28;20796;-78
2023/03/26 12:14:28;;;;;;;0.97;0.60;;;9.10;99.90;;;;;;5060549;28;20427;-77
2023/03/26 12:17:23;;;;;;;0.50;0.47;;;9.20;99.90;;;;;;5046832;28;20511;-77
2023/03/26 12:19:49;;;;;;;2.10;0.80;;;9.30;99.90;;;;;;5037557;28;20420;-77
2023/03/26 12:22:37;;;;;;;0.70;0.40;;;9.10;99.90;;;;;;5055392;28;20427;-78
2023/03/26 12:25:26;;;;;;;1.27;0.60;;;9.30;99.90;;;;;;5064132;28;20194;-77
2023/03/26 12:28:17;;;;;;;0.97;0.40;;;9.20;99.90;;;;;;5051941;28;20466;-77
2023/03/26 12:31:01;;;;;;;0.80;0.50;;;9.20;99.90;;;;;;5049424;28;20423;-78
2023/03/26 12:33:37;;;;;;;1.37;0.60;;;9.20;99.90;;;;;;5051258;28;20489;-77
2023/03/26 12:36:23;;;;;;;1.10;0.60;;;9.10;99.90;;;;;;5050284;28;20493;-78
2023/03/26 12:38:49;;;;;;;1.20;1.10;;;9.30;99.90;;;;;;5054083;28;20413;-78
2023/03/26 12:41:18;;;;;;;2.03;1.10;;;9.30;99.90;;;;;;5054616;28;20442;-78
2023/03/26 12:43:47;;;;;;;3.07;0.90;;;9.40;99.90;;;;;;5053843;28;20275;-77
2023/03/26 12:46:25;;;;;;;1.23;1.10;;;9.40;99.90;;;;;;5054473;28;20480;-78
2023/03/26 12:48:56;;;;;;;1.13;0.70;;;9.60;99.90;;;;;;5047606;28;20916;-78
2023/03/26 12:51:43;;;;;;;1.43;0.93;;;9.40;99.90;;;;;;5034279;28;20439;-78
2023/03/26 12:54:28;;;;;;;1.50;1.00;;;9.50;99.90;;;;;;5050288;28;20444;-77
2023/03/26 12:57:22;;;;;;;0.80;0.60;;;9.50;99.90;;;;;;5051274;28;20462;-77
2023/03/26 13:00:21;;;;;;;1.90;0.50;;;9.60;99.90;;;;;;5051204;28;20459;-77
2023/03/26 13:02:57;;;;;;;0.60;0.57;;;9.70;99.90;;;;;;5032325;28;20477;-77
2023/03/26 13:05:41;;;;;;;1.40;0.70;;;9.70;99.90;;;;;;5047609;28;20464;-77
2023/03/26 13:08:51;;;;;;;1.63;0.57;;;9.80;99.90;;;;;;5050513;28;20836;-77
2023/03/26 13:11:41;;;;;;;0.60;0.50;;;9.80;99.90;;;;;;5049466;28;20451;-78
2023/03/26 13:14:22;;;;;;;0.70;0.60;;;9.90;99.90;;;;;;5053318;28;20447;-77
2023/03/26 13:17:16;;;;;;;0.73;0.50;;;10.20;99.90;;;;;;5052799;28;20968;-78
2023/03/26 13:19:48;;;;;;;0.80;0.70;;;10.00;99.90;;;;;;5042796;28;20416;-80
2023/03/26 13:22:19;;;;;;;1.23;0.70;;;10.20;99.90;;;;;;5053051;28;20507;-78
2023/03/26 13:24:45;;;;;;;0.73;0.67;;;10.00;99.90;;;;;;5051592;28;21043;-78